Time;durP1;ratioP1;P1;durP2;ratioP2;P2;SDS_P1;SDS_P2;PMS_P1;PMS_P2;Temp;Humidity;BMP_temperature;BMP_pressure;BME280_temperature;BME280_humidity;BME280_pressure;Samples;Min_cycle;Max_cycle;Signal;HPM_P1;HPM_P2
2021/09/26 00:01:44;;;;;;;24.42;19.70;;;16.80;99.90;;;;;;6184280;23;20201;-74
2021/09/26 00:04:12;;;;;;;24.98;18.65;;;16.80;99.90;;;;;;6185741;23;20492;-74
2021/09/26 00:06:39;;;;;;;20.15;18.13;;;16.80;99.90;;;;;;6184540;23;20168;-73
2021/09/26 00:09:06;;;;;;;20.13;18.30;;;16.80;99.90;;;;;;6184374;23;20900;-74
2021/09/26 00:11:34;;;;;;;24.80;20.87;;;16.80;99.90;;;;;;6184944;23;20199;-74
2021/09/26 00:14:03;;;;;;;21.88;19.67;;;16.80;99.90;;;;;;6184488;23;20402;-75
2021/09/26 00:16:30;;;;;;;21.63;19.50;;;16.80;99.90;;;;;;6184019;23;20566;-75
2021/09/26 00:18:58;;;;;;;25.65;21.50;;;16.90;99.90;;;;;;6185766;23;20773;-75
2021/09/26 00:21:25;;;;;;;21.03;18.80;;;16.90;99.90;;;;;;6184942;23;20182;-75
2021/09/26 00:23:53;;;;;;;24.40;18.93;;;17.00;99.90;;;;;;6185944;23;20405;-77
2021/09/26 00:26:21;;;;;;;21.38;19.17;;;17.10;99.90;;;;;;6185224;23;20394;-75
2021/09/26 00:28:48;;;;;;;22.00;19.70;;;17.10;99.90;;;;;;6186701;23;20225;-74
2021/09/26 00:31:17;;;;;;;24.50;22.00;;;17.10;99.90;;;;;;6185987;23;20397;-74
2021/09/26 00:33:46;;;;;;;22.48;20.05;;;17.20;99.90;;;;;;6186340;23;20427;-73
2021/09/26 00:36:13;;;;;;;23.50;19.00;;;17.20;99.90;;;;;;6184401;23;20497;-74
2021/09/26 00:38:41;;;;;;;23.77;21.33;;;17.20;99.90;;;;;;6185656;23;20180;-73
2021/09/26 00:41:08;;;;;;;28.80;22.60;;;17.30;99.90;;;;;;6188060;23;20397;-75
2021/09/26 00:43:37;;;;;;;26.47;22.53;;;17.30;99.90;;;;;;6189703;23;20395;-75
2021/09/26 00:46:06;;;;;;;23.00;19.30;;;17.30;99.90;;;;;;6192642;23;20467;-72
2021/09/26 00:48:36;;;;;;;23.77;21.33;;;17.30;99.90;;;;;;6197040;23;20400;-75
2021/09/26 00:51:09;;;;;;;26.50;23.90;;;17.20;99.90;;;;;;6195504;23;20293;-71
2021/09/26 00:53:37;;;;;;;22.87;20.40;;;17.20;99.90;;;;;;6196325;23;20869;-75
2021/09/26 00:56:13;;;;;;;23.90;21.07;;;17.20;99.90;;;;;;6195607;23;20428;-73
2021/09/26 00:58:41;;;;;;;23.40;21.10;;;17.20;99.90;;;;;;6197372;23;20396;-76
2021/09/26 01:01:19;;;;;;;22.63;20.37;;;17.20;99.90;;;;;;6200616;23;20935;-72
2021/09/26 01:03:48;;;;;;;22.47;20.03;;;17.30;99.90;;;;;;6201390;23;20571;-72
2021/09/26 01:06:30;;;;;;;22.77;20.40;;;17.30;99.90;;;;;;6204006;23;20408;-71
2021/09/26 01:09:06;;;;;;;24.87;22.23;;;17.30;99.90;;;;;;6198254;23;20403;-74
2021/09/26 01:11:48;;;;;;;21.10;19.00;;;17.30;99.90;;;;;;6190252;23;20454;-74
2021/09/26 01:14:26;;;;;;;23.63;20.97;;;17.30;99.90;;;;;;6188640;23;20401;-71
2021/09/26 01:17:06;;;;;;;22.87;19.60;;;17.40;99.90;;;;;;6187917;23;20576;-75
2021/09/26 01:19:47;;;;;;;25.07;22.37;;;17.50;99.90;;;;;;6187247;23;20830;-75
2021/09/26 01:22:20;;;;;;;22.40;20.00;;;17.40;99.90;;;;;;6185716;23;20414;-71
2021/09/26 01:25:13;;;;;;;21.20;19.00;;;17.40;99.90;;;;;;6187611;23;20418;-73
2021/09/26 01:28:22;;;;;;;22.70;20.27;;;17.40;99.90;;;;;;6187422;23;20403;-75
2021/09/26 01:30:54;;;;;;;23.63;20.92;;;17.50;99.90;;;;;;6094465;23;20413;-73
2021/09/26 01:33:25;;;;;;;22.53;19.33;;;17.50;99.90;;;;;;6095567;23;20217;-75
2021/09/26 01:35:57;;;;;;;21.13;19.13;;;17.50;99.90;;;;;;6146545;23;20503;-74
2021/09/26 01:38:36;;;;;;;22.87;20.47;;;17.50;99.90;;;;;;6187339;23;20395;-74
2021/09/26 01:41:11;;;;;;;23.63;21.43;;;17.50;99.90;;;;;;6187015;23;20393;-76
2021/09/26 01:43:43;;;;;;;24.95;21.40;;;17.60;99.90;;;;;;6186047;23;20690;-74
2021/09/26 01:46:14;;;;;;;22.40;20.03;;;17.60;99.90;;;;;;6186076;23;20164;-73
2021/09/26 01:48:49;;;;;;;22.20;20.10;;;17.60;99.90;;;;;;6186810;23;20402;-72
2021/09/26 01:51:21;;;;;;;22.20;20.10;;;17.70;99.90;;;;;;6184630;23;20806;-72
2021/09/26 01:53:49;;;;;;;23.03;20.87;;;17.70;99.90;;;;;;6186667;23;20403;-74
2021/09/26 01:56:17;;;;;;;22.00;19.70;;;17.70;99.90;;;;;;6184106;23;20941;-73
2021/09/26 01:58:46;;;;;;;24.37;21.20;;;17.70;99.90;;;;;;6187432;23;20392;-75
2021/09/26 02:01:17;;;;;;;23.27;20.97;;;17.70;99.90;;;;;;6187062;23;20699;-71
2021/09/26 02:03:45;;;;;;;22.07;19.93;;;17.70;99.90;;;;;;6184585;23;20866;-75
2021/09/26 02:06:13;;;;;;;25.73;22.33;;;17.60;99.90;;;;;;6185373;23;20396;-76
2021/09/26 02:08:43;;;;;;;20.10;18.10;;;17.60;99.90;;;;;;6186531;23;20399;-71
2021/09/26 02:11:11;;;;;;;22.43;20.23;;;17.60;99.90;;;;;;6186035;23;20497;-74
2021/09/26 02:13:40;;;;;;;22.70;20.40;;;17.60;99.90;;;;;;6186724;23;20428;-75
2021/09/26 02:16:09;;;;;;;24.40;21.50;;;17.60;99.90;;;;;;6186530;23;20482;-72
2021/09/26 02:18:40;;;;;;;25.70;23.10;;;17.50;99.90;;;;;;6194050;23;20443;-71
2021/09/26 02:21:08;;;;;;;28.23;24.30;;;17.50;99.90;;;;;;6195136;23;20423;-76
2021/09/26 02:23:43;;;;;;;26.50;23.50;;;17.50;99.90;;;;;;6194944;23;20926;-70
2021/09/26 02:26:11;;;;;;;28.43;23.40;;;17.50;99.90;;;;;;6188544;23;20392;-74
2021/09/26 02:28:39;;;;;;;27.07;22.83;;;17.50;99.90;;;;;;6186275;23;20395;-73
2021/09/26 02:31:08;;;;;;;26.00;21.80;;;17.50;99.90;;;;;;6186077;23;20861;-75
2021/09/26 02:33:40;;;;;;;24.17;21.83;;;17.60;99.90;;;;;;6185630;23;20402;-74
2021/09/26 02:36:08;;;;;;;21.50;19.40;;;17.50;99.90;;;;;;6185328;23;20436;-76
2021/09/26 02:38:37;;;;;;;22.30;19.40;;;17.50;99.90;;;;;;6186693;23;20721;-73
2021/09/26 02:41:11;;;;;;;21.40;19.20;;;17.60;99.90;;;;;;6186457;23;20396;-73
2021/09/26 02:43:43;;;;;;;20.17;18.07;;;17.60;99.90;;;;;;6186080;23;20757;-73
2021/09/26 02:46:16;;;;;;;19.90;17.90;;;17.60;99.90;;;;;;6185016;23;20392;-73
2021/09/26 02:48:46;;;;;;;20.63;18.55;;;17.60;99.90;;;;;;6186047;23;20431;-73
2021/09/26 02:51:13;;;;;;;21.97;19.63;;;17.60;99.90;;;;;;6185805;23;20873;-75
2021/09/26 02:53:41;;;;;;;20.40;18.40;;;17.60;99.90;;;;;;6186278;23;20724;-75
2021/09/26 02:56:09;;;;;;;22.03;19.80;;;17.60;99.90;;;;;;6184896;23;20432;-74
2021/09/26 02:58:38;;;;;;;21.80;19.60;;;17.60;99.90;;;;;;6185721;23;20442;-73
2021/09/26 03:01:06;;;;;;;20.60;17.77;;;17.60;99.90;;;;;;6185568;23;20467;-74
2021/09/26 03:03:33;;;;;;;18.88;16.88;;;17.60;99.90;;;;;;6186157;23;20446;-70
2021/09/26 03:06:02;;;;;;;18.53;16.60;;;17.70;99.90;;;;;;6185470;23;20160;-73
2021/09/26 03:08:29;;;;;;;18.77;16.73;;;17.60;99.90;;;;;;6185530;23;20507;-74
2021/09/26 03:10:58;;;;;;;18.77;16.87;;;17.60;99.90;;;;;;6185618;23;20215;-72
2021/09/26 03:13:26;;;;;;;20.80;17.93;;;17.70;99.90;;;;;;6185752;23;20439;-71
2021/09/26 03:15:54;;;;;;;18.00;15.97;;;17.60;99.90;;;;;;6185343;23;20478;-75
2021/09/26 03:18:21;;;;;;;18.53;16.73;;;17.60;99.90;;;;;;6185945;23;20395;-74
2021/09/26 03:20:49;;;;;;;19.07;17.13;;;17.60;99.90;;;;;;6185603;23;20467;-72
2021/09/26 03:23:19;;;;;;;18.27;16.43;;;17.60;99.90;;;;;;6185933;23;20428;-74
2021/09/26 03:25:46;;;;;;;16.87;15.37;;;17.60;99.90;;;;;;6184381;23;20403;-74
2021/09/26 03:28:14;;;;;;;16.40;14.90;;;17.60;99.90;;;;;;6186177;23;20398;-74
2021/09/26 03:30:41;;;;;;;17.37;15.77;;;17.60;99.90;;;;;;6185213;23;20406;-73
2021/09/26 03:33:08;;;;;;;15.40;13.90;;;17.60;99.90;;;;;;6186619;23;20433;-74
2021/09/26 03:35:37;;;;;;;16.17;14.00;;;17.60;99.90;;;;;;6183854;23;20405;-72
2021/09/26 03:38:04;;;;;;;17.63;15.77;;;17.60;99.90;;;;;;6185726;23;20406;-72
2021/09/26 03:40:33;;;;;;;17.13;15.40;;;17.60;99.90;;;;;;6185955;23;20395;-74
2021/09/26 03:43:00;;;;;;;16.63;15.07;;;17.60;99.90;;;;;;6185274;23;20431;-73
2021/09/26 03:45:27;;;;;;;14.63;13.13;;;17.60;99.90;;;;;;6184538;23;20477;-74
2021/09/26 03:47:55;;;;;;;16.70;14.90;;;17.50;99.90;;;;;;6185395;23;20414;-72
2021/09/26 03:50:23;;;;;;;15.30;13.80;;;17.50;99.90;;;;;;6185286;23;20919;-74
2021/09/26 03:52:50;;;;;;;15.23;13.73;;;17.50;99.90;;;;;;6184992;23;20439;-72
2021/09/26 03:55:17;;;;;;;15.40;13.73;;;17.50;99.90;;;;;;6185098;23;20163;-75
2021/09/26 03:57:46;;;;;;;15.13;13.13;;;17.50;99.90;;;;;;6185112;23;20435;-74
2021/09/26 04:00:16;;;;;;;16.13;14.03;;;17.50;99.90;;;;;;6185283;23;20406;-73
2021/09/26 04:02:43;;;;;;;14.10;12.57;;;17.50;99.90;;;;;;6185067;23;20430;-75
2021/09/26 04:05:11;;;;;;;14.93;13.43;;;17.50;99.90;;;;;;6184451;23;20171;-75
2021/09/26 04:07:38;;;;;;;13.90;11.80;;;17.40;99.90;;;;;;6185138;23;20388;-73
2021/09/26 04:10:07;;;;;;;13.93;12.50;;;17.30;99.90;;;;;;6185411;23;20171;-74
2021/09/26 04:12:34;;;;;;;13.40;12.00;;;17.30;99.90;;;;;;6186494;23;20315;-75
2021/09/26 04:15:04;;;;;;;14.10;12.17;;;17.20;99.90;;;;;;6185895;23;20598;-73
2021/09/26 04:17:31;;;;;;;14.65;13.23;;;17.20;99.90;;;;;;6185731;23;20514;-72
2021/09/26 04:19:59;;;;;;;13.77;11.98;;;17.10;99.90;;;;;;6185401;23;20173;-72
2021/09/26 04:22:26;;;;;;;15.10;11.50;;;17.00;99.90;;;;;;6185314;23;20493;-73
2021/09/26 04:24:54;;;;;;;12.73;11.43;;;16.90;99.90;;;;;;6185436;23;20173;-72
2021/09/26 04:27:21;;;;;;;14.30;12.60;;;16.90;99.90;;;;;;6183937;23;20170;-73
2021/09/26 04:29:48;;;;;;;12.20;10.93;;;16.80;99.90;;;;;;6185772;23;20395;-72
2021/09/26 04:32:17;;;;;;;14.20;12.80;;;16.80;99.90;;;;;;6184963;23;20199;-74
2021/09/26 04:34:45;;;;;;;12.75;11.25;;;16.70;99.90;;;;;;6184471;23;20396;-72
2021/09/26 04:37:13;;;;;;;12.90;11.52;;;16.70;99.90;;;;;;6184703;23;20187;-74
2021/09/26 04:39:40;;;;;;;13.25;11.80;;;16.70;99.90;;;;;;6185471;23;20166;-71
2021/09/26 04:42:08;;;;;;;14.35;12.23;;;16.60;99.90;;;;;;6184708;23;20205;-74
2021/09/26 04:44:35;;;;;;;14.55;11.85;;;16.60;99.90;;;;;;6185112;23;20162;-74
2021/09/26 04:47:03;;;;;;;14.68;11.95;;;16.60;99.90;;;;;;6184794;23;20489;-73
2021/09/26 04:49:31;;;;;;;12.25;10.93;;;16.60;99.90;;;;;;6186480;23;20197;-74
2021/09/26 04:52:00;;;;;;;12.43;11.23;;;16.60;99.90;;;;;;6187433;23;20206;-72
2021/09/26 04:54:27;;;;;;;12.20;10.90;;;16.60;99.90;;;;;;6186994;23;20163;-74
2021/09/26 04:56:56;;;;;;;11.88;10.70;;;16.60;99.90;;;;;;6186350;23;20183;-74
2021/09/26 04:59:24;;;;;;;14.40;11.20;;;16.60;99.90;;;;;;6186723;23;20206;-75
2021/09/26 05:01:51;;;;;;;13.70;12.32;;;16.50;99.90;;;;;;6186730;23;20433;-73
2021/09/26 05:04:19;;;;;;;12.68;11.32;;;16.50;99.90;;;;;;6186764;23;20181;-72
2021/09/26 05:06:54;;;;;;;12.73;11.52;;;16.40;99.90;;;;;;6186646;23;20159;-73
2021/09/26 05:09:21;;;;;;;12.23;10.98;;;16.30;99.90;;;;;;6187545;23;20167;-76
2021/09/26 05:12:07;;;;;;;14.68;11.88;;;16.30;99.90;;;;;;6187178;23;20303;-74
2021/09/26 05:14:34;;;;;;;13.68;11.88;;;16.30;99.90;;;;;;6187262;23;20628;-73
2021/09/26 05:17:24;;;;;;;11.50;10.40;;;16.20;99.90;;;;;;6187080;23;20196;-74
2021/09/26 05:19:51;;;;;;;16.20;12.18;;;16.20;99.90;;;;;;6187660;23;20162;-73
2021/09/26 05:22:25;;;;;;;11.60;10.40;;;16.20;99.90;;;;;;6186861;23;20205;-73
2021/09/26 05:24:52;;;;;;;14.02;12.00;;;16.10;99.90;;;;;;6187256;23;20243;-74
2021/09/26 05:27:19;;;;;;;11.57;10.27;;;16.10;99.90;;;;;;6186401;23;20164;-73
2021/09/26 05:29:46;;;;;;;16.38;12.10;;;16.00;99.90;;;;;;6187249;23;20169;-74
2021/09/26 05:32:14;;;;;;;12.15;10.85;;;15.90;99.90;;;;;;6187009;23;20201;-74
2021/09/26 05:34:41;;;;;;;17.80;13.25;;;16.00;99.90;;;;;;6186789;23;20167;-76
2021/09/26 05:37:08;;;;;;;18.02;13.75;;;16.00;99.90;;;;;;6186405;23;20641;-73
2021/09/26 05:39:37;;;;;;;15.63;12.00;;;16.00;99.90;;;;;;6190010;23;20166;-74
2021/09/26 05:42:06;;;;;;;16.15;12.38;;;16.10;99.90;;;;;;6185900;23;20201;-75
2021/09/26 05:44:35;;;;;;;13.35;11.63;;;16.00;99.90;;;;;;6186703;23;20170;-73
2021/09/26 05:47:03;;;;;;;16.73;13.25;;;16.00;99.90;;;;;;6186089;23;20158;-73
2021/09/26 05:49:30;;;;;;;18.65;14.55;;;16.00;99.90;;;;;;6186191;23;20538;-73
2021/09/26 05:51:57;;;;;;;11.95;10.75;;;16.00;99.90;;;;;;6186358;23;20201;-75
2021/09/26 05:54:25;;;;;;;22.83;17.48;;;16.00;99.90;;;;;;6185860;23;20162;-73
2021/09/26 05:56:53;;;;;;;18.08;12.73;;;16.10;99.90;;;;;;6185981;23;20204;-74
2021/09/26 05:59:20;;;;;;;21.90;11.00;;;16.20;99.90;;;;;;6185821;23;20215;-73
2021/09/26 06:01:48;;;;;;;11.98;10.30;;;16.30;99.90;;;;;;6195215;23;20208;-72
2021/09/26 06:04:15;;;;;;;10.52;9.48;;;16.30;99.90;;;;;;6196769;23;20173;-71
2021/09/26 06:06:42;;;;;;;17.80;14.38;;;16.30;99.90;;;;;;6190703;23;20511;-73
2021/09/26 06:09:10;;;;;;;13.55;12.15;;;16.40;99.90;;;;;;6187100;23;20458;-72
2021/09/26 06:11:37;;;;;;;13.32;10.75;;;16.40;99.90;;;;;;6185211;23;20217;-72
2021/09/26 06:14:07;;;;;;;13.35;10.00;;;16.50;99.90;;;;;;6185951;23;20591;-73
2021/09/26 06:16:34;;;;;;;11.60;9.82;;;16.60;99.90;;;;;;6185515;23;20187;-72
2021/09/26 06:19:03;;;;;;;10.88;9.32;;;16.70;99.90;;;;;;6186631;23;20174;-73
2021/09/26 06:21:30;;;;;;;14.30;10.25;;;16.80;99.90;;;;;;6185747;23;20615;-74
2021/09/26 06:23:57;;;;;;;12.70;9.35;;;16.90;99.90;;;;;;6185933;23;20169;-74
2021/09/26 06:26:25;;;;;;;13.17;9.67;;;17.00;99.90;;;;;;6185519;23;20175;-71
2021/09/26 06:28:52;;;;;;;11.97;7.97;;;17.50;99.90;;;;;;6186758;23;20427;-73
2021/09/26 06:31:21;;;;;;;7.57;6.77;;;18.50;99.90;;;;;;6185940;23;20392;-72
2021/09/26 06:33:48;;;;;;;7.40;6.70;;;19.60;99.90;;;;;;6187182;23;20394;-74
2021/09/26 06:36:15;;;;;;;8.73;7.30;;;20.70;99.90;;;;;;6186250;23;20871;-76
2021/09/26 06:38:43;;;;;;;7.87;7.10;;;21.50;99.90;;;;;;6186095;23;20435;-75
2021/09/26 06:41:11;;;;;;;7.50;6.40;;;22.30;99.90;;;;;;6185633;23;20427;-72
2021/09/26 06:43:39;;;;;;;7.40;6.60;;;22.60;99.90;;;;;;6185635;23;20765;-72
2021/09/26 06:46:06;;;;;;;9.20;6.80;;;23.60;99.90;;;;;;6185199;23;20396;-73
2021/09/26 06:48:35;;;;;;;8.43;6.50;;;23.60;99.90;;;;;;6185731;23;20418;-73
2021/09/26 06:51:02;;;;;;;7.10;5.93;;;24.00;99.90;;;;;;6185453;23;20422;-75
2021/09/26 06:53:29;;;;;;;7.30;6.60;;;24.50;99.90;;;;;;6185751;23;20413;-74
2021/09/26 06:55:57;;;;;;;9.50;6.27;;;25.00;98.40;;;;;;6185314;23;20706;-75
2021/09/26 06:58:24;;;;;;;7.33;6.57;;;25.30;97.70;;;;;;6185990;23;20434;-74
2021/09/26 07:00:52;;;;;;;8.80;7.93;;;26.10;96.50;;;;;;6185700;23;21055;-76
2021/09/26 07:03:19;;;;;;;7.47;6.67;;;26.40;94.90;;;;;;6185700;23;20435;-73
2021/09/26 07:05:48;;;;;;;7.63;6.73;;;26.70;94.20;;;;;;6184903;23;20400;-72
2021/09/26 07:08:15;;;;;;;6.07;5.47;;;27.10;93.60;;;;;;6185432;23;20388;-74
2021/09/26 07:10:42;;;;;;;6.57;5.40;;;27.60;92.20;;;;;;6184945;23;20396;-73
2021/09/26 07:13:10;;;;;;;7.00;6.33;;;28.30;91.40;;;;;;6185567;23;20510;-75
2021/09/26 07:15:37;;;;;;;8.13;6.30;;;28.70;90.50;;;;;;6184667;23;20388;-73
2021/09/26 07:18:05;;;;;;;7.73;5.80;;;28.70;89.70;;;;;;6185255;23;20914;-75
2021/09/26 07:20:32;;;;;;;6.20;5.10;;;29.10;89.10;;;;;;6185286;23;20403;-75
2021/09/26 07:23:02;;;;;;;6.17;5.57;;;29.60;86.70;;;;;;6185069;23;20502;-74
2021/09/26 07:25:30;;;;;;;7.07;5.90;;;29.90;85.30;;;;;;6185989;23;20388;-76
2021/09/26 07:27:58;;;;;;;5.60;5.10;;;29.90;84.40;;;;;;6186263;23;20402;-74
2021/09/26 07:30:26;;;;;;;5.90;5.40;;;30.10;83.90;;;;;;6185273;23;20927;-74
2021/09/26 07:32:53;;;;;;;7.40;5.93;;;30.40;82.70;;;;;;6185192;23;20840;-73
2021/09/26 07:35:20;;;;;;;6.97;6.37;;;30.70;81.50;;;;;;6184728;23;20403;-77
2021/09/26 07:37:48;;;;;;;6.90;5.93;;;30.50;81.50;;;;;;6186052;23;20439;-74
2021/09/26 07:40:16;;;;;;;5.80;5.20;;;30.30;82.10;;;;;;6185730;23;20407;-75
2021/09/26 07:42:44;;;;;;;7.00;5.63;;;30.50;82.00;;;;;;6185693;23;20438;-74
2021/09/26 07:45:13;;;;;;;6.40;5.80;;;30.30;81.00;;;;;;6186079;23;20415;-74
2021/09/26 07:47:41;;;;;;;6.20;5.27;;;30.20;80.80;;;;;;6190026;23;20471;-78
2021/09/26 07:50:10;;;;;;;6.53;5.60;;;30.50;81.00;;;;;;6187927;23;20403;-75
2021/09/26 07:52:38;;;;;;;8.90;5.33;;;30.40;81.30;;;;;;6186087;23;20436;-75
2021/09/26 07:55:06;;;;;;;5.50;5.00;;;30.90;79.60;;;;;;6187282;23;20450;-74
2021/09/26 07:57:35;;;;;;;7.60;5.40;;;31.20;79.80;;;;;;6189003;23;20440;-72
2021/09/26 08:00:02;;;;;;;6.43;5.87;;;31.30;78.90;;;;;;6189429;23;20425;-74
2021/09/26 08:02:30;;;;;;;7.00;5.30;;;30.80;79.70;;;;;;6190197;23;20449;-74
2021/09/26 08:04:57;;;;;;;6.37;5.67;;;31.00;79.80;;;;;;6190223;23;20392;-74
2021/09/26 08:07:24;;;;;;;6.40;5.50;;;31.30;78.70;;;;;;6190746;23;20388;-71
2021/09/26 08:09:52;;;;;;;6.23;5.70;;;31.30;78.10;;;;;;6193910;23;20427;-73
2021/09/26 08:12:25;;;;;;;9.13;6.17;;;31.20;78.60;;;;;;6195380;23;20427;-74
2021/09/26 08:14:55;;;;;;;8.23;6.10;;;30.80;78.80;;;;;;6195232;23;20423;-73
2021/09/26 08:19:51;;;;;;;5.50;5.00;;;31.80;77.30;;;;;;6125602;23;20402;-73
2021/09/26 08:22:19;;;;;;;6.00;5.47;;;32.00;76.80;;;;;;6124781;23;20515;-74
2021/09/26 08:24:46;;;;;;;7.17;4.93;;;31.50;77.30;;;;;;6125173;23;20462;-74
2021/09/26 08:27:19;;;;;;;6.50;4.33;;;31.80;77.20;;;;;;6123749;23;20444;-74
2021/09/26 08:29:47;;;;;;;8.33;5.27;;;31.40;77.50;;;;;;6125166;23;20398;-75
2021/09/26 08:32:15;;;;;;;5.73;5.17;;;30.60;78.30;;;;;;6124262;23;20433;-75
2021/09/26 08:34:42;;;;;;;5.67;5.17;;;30.60;79.90;;;;;;6123858;23;20449;-75
2021/09/26 08:37:10;;;;;;;12.23;5.23;;;30.90;79.00;;;;;;6124446;23;20695;-74
2021/09/26 08:39:37;;;;;;;8.50;4.90;;;30.90;78.90;;;;;;6124742;23;20394;-73
2021/09/26 08:42:05;;;;;;;6.80;6.10;;;31.00;78.80;;;;;;6125101;23;20524;-74
2021/09/26 08:44:33;;;;;;;6.40;5.40;;;29.70;78.60;;;;;;6125671;23;20389;-73
2021/09/26 08:47:00;;;;;;;6.07;5.00;;;29.70;80.80;;;;;;6124432;23;20915;-74
2021/09/26 08:49:30;;;;;;;5.30;4.70;;;29.90;81.30;;;;;;6124685;23;20393;-73
2021/09/26 08:51:57;;;;;;;6.10;5.07;;;30.30;80.40;;;;;;6124690;23;20438;-74
2021/09/26 08:54:25;;;;;;;6.70;6.00;;;30.60;80.30;;;;;;6124838;23;20478;-74
2021/09/26 08:56:52;;;;;;;6.80;5.93;;;30.10;80.00;;;;;;6124336;23;20751;-74
2021/09/26 08:59:19;;;;;;;6.93;6.23;;;29.20;81.70;;;;;;6125117;23;20477;-75
2021/09/26 09:01:47;;;;;;;23.87;6.70;;;27.70;85.60;;;;;;6124649;23;20417;-76
2021/09/26 09:04:14;;;;;;;7.33;6.40;;;26.90;89.10;;;;;;6124742;23;20861;-73
2021/09/26 09:06:45;;;;;;;8.60;6.80;;;26.10;91.20;;;;;;6124158;23;20413;-74
2021/09/26 09:09:16;;;;;;;7.83;6.47;;;25.80;92.30;;;;;;6123638;23;20439;-73
2021/09/26 09:11:45;;;;;;;8.87;5.93;;;25.20;93.50;;;;;;6122469;23;20426;-73
2021/09/26 09:14:12;;;;;;;7.93;7.13;;;24.80;95.20;;;;;;6124372;23;20480;-74
2021/09/26 09:16:40;;;;;;;5.87;5.27;;;24.60;96.30;;;;;;6122580;23;20417;-74
2021/09/26 09:19:21;;;;;;;7.00;6.30;;;24.80;96.20;;;;;;6123653;23;20420;-73
2021/09/26 09:22:06;;;;;;;6.67;6.00;;;24.70;96.20;;;;;;6122426;23;20519;-74
2021/09/26 09:24:42;;;;;;;9.13;5.63;;;24.80;96.80;;;;;;6123630;23;20477;-73
2021/09/26 09:27:10;;;;;;;6.10;5.50;;;25.60;95.90;;;;;;6121770;23;20393;-74
2021/09/26 09:29:38;;;;;;;5.70;5.13;;;26.60;93.50;;;;;;6123569;23;20394;-74
2021/09/26 09:32:18;;;;;;;4.60;4.20;;;27.30;91.90;;;;;;6123755;23;20437;-74
2021/09/26 09:34:45;;;;;;;5.40;4.90;;;27.50;91.40;;;;;;6124327;23;20389;-73
2021/09/26 09:37:16;;;;;;;5.47;4.70;;;27.30;91.30;;;;;;6125694;23;20841;-74
2021/09/26 09:40:04;;;;;;;5.97;5.37;;;26.70;91.70;;;;;;6126117;23;20468;-72
2021/09/26 09:42:38;;;;;;;6.53;5.40;;;25.90;92.70;;;;;;6125886;23;20417;-73
2021/09/26 09:45:15;;;;;;;7.00;6.30;;;25.10;94.60;;;;;;6099159;23;20413;-73
2021/09/26 09:48:00;;;;;;;7.20;5.80;;;24.40;96.60;;;;;;6126748;23;20469;-75
2021/09/26 09:50:39;;;;;;;7.33;6.60;;;23.70;98.50;;;;;;6126780;23;20715;-74
2021/09/26 09:53:08;;;;;;;6.90;6.30;;;23.10;99.90;;;;;;6100806;23;20565;-73
2021/09/26 09:55:36;;;;;;;8.30;6.07;;;22.80;99.90;;;;;;6125153;23;20417;-72
2021/09/26 09:58:13;;;;;;;6.80;5.63;;;22.50;99.90;;;;;;6126002;23;20410;-73
2021/09/26 10:00:52;;;;;;;6.93;6.23;;;22.30;99.90;;;;;;6126222;23;20513;-74
2021/09/26 10:03:40;;;;;;;9.17;6.37;;;22.10;99.90;;;;;;6126233;23;20439;-74
2021/09/26 10:06:24;;;;;;;6.90;5.30;;;22.20;99.90;;;;;;6125251;23;20398;-74
2021/09/26 10:09:00;;;;;;;11.00;6.07;;;22.30;99.90;;;;;;6126457;23;20469;-73
2021/09/26 10:11:30;;;;;;;8.30;6.00;;;22.70;99.90;;;;;;6126652;23;20477;-74
2021/09/26 10:13:58;;;;;;;7.83;6.50;;;23.10;99.90;;;;;;6126462;23;20433;-73
2021/09/26 10:16:26;;;;;;;6.97;5.20;;;23.20;99.90;;;;;;6125808;23;20403;-74
2021/09/26 10:18:54;;;;;;;7.03;5.80;;;23.30;99.90;;;;;;6125769;23;20427;-73
2021/09/26 10:21:22;;;;;;;7.50;5.90;;;23.40;99.90;;;;;;6125523;23;20398;-73
2021/09/26 10:23:52;;;;;;;6.30;5.60;;;23.60;99.90;;;;;;6126322;23;20398;-73
2021/09/26 10:26:24;;;;;;;6.97;5.00;;;23.60;99.90;;;;;;6124650;23;20397;-73
2021/09/26 10:28:54;;;;;;;5.50;4.93;;;23.80;99.10;;;;;;6124642;23;20481;-73
2021/09/26 10:31:23;;;;;;;6.57;5.00;;;23.90;98.90;;;;;;6125603;23;20477;-74
2021/09/26 10:33:52;;;;;;;6.40;5.63;;;24.10;98.50;;;;;;6125786;23;20476;-74
2021/09/26 10:36:22;;;;;;;6.97;6.27;;;24.10;98.30;;;;;;6124951;23;20876;-74
2021/09/26 10:38:51;;;;;;;8.00;5.97;;;24.00;98.50;;;;;;6125301;23;20398;-73
2021/09/26 10:41:23;;;;;;;6.00;5.40;;;24.20;98.10;;;;;;6125637;23;20409;-73
2021/09/26 10:43:50;;;;;;;8.30;5.60;;;24.00;98.20;;;;;;6125854;23;20476;-73
2021/09/26 10:46:21;;;;;;;6.30;5.50;;;23.70;98.90;;;;;;6124691;23;20394;-74
2021/09/26 10:49:05;;;;;;;8.07;5.60;;;23.80;99.20;;;;;;6125929;23;20432;-77
2021/09/26 10:51:58;;;;;;;7.33;6.63;;;24.30;98.50;;;;;;6119183;23;20430;-79
2021/09/26 10:54:37;;;;;;;6.63;6.00;;;24.70;97.70;;;;;;6092966;23;20435;-73
2021/09/26 10:57:29;;;;;;;6.47;5.60;;;24.70;97.60;;;;;;6122983;23;20464;-75
2021/09/26 11:00:05;;;;;;;6.80;6.20;;;24.50;98.00;;;;;;6126298;23;20871;-78
2021/09/26 11:02:48;;;;;;;12.67;7.27;;;24.40;98.50;;;;;;6123907;23;20436;-76
2021/09/26 11:05:31;;;;;;;7.40;5.83;;;24.20;98.70;;;;;;6124619;23;20394;-75
2021/09/26 11:07:59;;;;;;;7.77;6.60;;;24.40;98.90;;;;;;6124047;23;20470;-75
2021/09/26 11:10:52;;;;;;;9.13;6.80;;;24.50;98.40;;;;;;6124383;23;20402;-74
2021/09/26 11:13:24;;;;;;;7.20;5.40;;;24.40;98.90;;;;;;6123978;23;20422;-76
2021/09/26 11:16:13;;;;;;;8.73;6.13;;;24.80;98.60;;;;;;6124119;23;20484;-74
2021/09/26 11:18:47;;;;;;;7.50;5.70;;;25.30;97.10;;;;;;6122850;23;20420;-73
2021/09/26 11:21:45;;;;;;;7.40;6.70;;;25.30;96.30;;;;;;6124983;23;20401;-76
2021/09/26 11:24:24;;;;;;;6.00;5.40;;;25.00;97.10;;;;;;6124271;23;20417;-76
2021/09/26 11:27:13;;;;;;;6.73;6.10;;;24.90;97.30;;;;;;6124130;23;20398;-73
2021/09/26 11:30:32;;;;;;;8.27;6.60;;;24.80;97.20;;;;;;6123771;23;20434;-72
2021/09/26 11:33:06;;;;;;;6.83;6.13;;;24.80;96.70;;;;;;6124315;23;20433;-73
2021/09/26 11:35:35;;;;;;;6.43;5.83;;;24.50;97.20;;;;;;6099065;23;20418;-72
2021/09/26 11:38:06;;;;;;;7.00;6.30;;;24.60;98.20;;;;;;6124139;23;20393;-74
2021/09/26 11:41:03;;;;;;;5.30;4.60;;;24.60;97.70;;;;;;6125234;23;20400;-74
2021/09/26 11:43:34;;;;;;;6.97;6.37;;;24.70;97.60;;;;;;6126132;23;20437;-74
2021/09/26 11:46:13;;;;;;;6.67;6.07;;;24.80;98.00;;;;;;6125699;23;20401;-72
2021/09/26 11:48:42;;;;;;;6.20;5.40;;;24.90;97.90;;;;;;6125367;23;20437;-74
2021/09/26 11:51:12;;;;;;;5.73;5.17;;;25.10;97.50;;;;;;6124351;23;20413;-72
2021/09/26 11:53:40;;;;;;;6.63;5.60;;;25.30;97.70;;;;;;6125941;23;20394;-73
2021/09/26 11:56:14;;;;;;;10.40;6.33;;;25.50;96.80;;;;;;6124009;23;20473;-71
2021/09/26 11:58:42;;;;;;;7.63;6.87;;;25.40;96.80;;;;;;6125175;23;20476;-74
2021/09/26 12:01:09;;;;;;;6.30;5.70;;;25.40;96.40;;;;;;6124469;23;20864;-74
2021/09/26 12:03:37;;;;;;;7.00;6.00;;;25.30;97.00;;;;;;6125064;23;20416;-73
2021/09/26 12:06:06;;;;;;;9.07;7.47;;;25.40;96.90;;;;;;6123953;23;20408;-71
2021/09/26 12:08:40;;;;;;;6.63;5.50;;;25.30;96.70;;;;;;6124385;23;20465;-72
2021/09/26 12:11:09;;;;;;;6.00;5.40;;;25.40;96.90;;;;;;6124308;23;20388;-73
2021/09/26 12:13:58;;;;;;;8.57;5.40;;;25.60;96.50;;;;;;6124468;23;20509;-75
2021/09/26 12:16:27;;;;;;;9.13;7.40;;;25.80;96.80;;;;;;6115548;23;20887;-74
2021/09/26 12:18:56;;;;;;;8.03;5.77;;;25.50;96.40;;;;;;6124531;23;20908;-72
2021/09/26 12:21:29;;;;;;;6.93;6.10;;;25.10;97.20;;;;;;6124065;23;20378;-70
2021/09/26 12:24:00;;;;;;;7.80;7.10;;;25.00;97.90;;;;;;6125314;23;20393;-71
2021/09/26 12:26:33;;;;;;;6.77;6.17;;;24.90;98.10;;;;;;6124020;23;20394;-73
2021/09/26 12:29:14;;;;;;;7.17;6.47;;;24.80;98.50;;;;;;6125233;23;20459;-74
2021/09/26 12:31:44;;;;;;;10.13;5.90;;;24.60;98.60;;;;;;6124986;23;20517;-72
2021/09/26 12:34:23;;;;;;;7.00;6.30;;;24.60;99.00;;;;;;6124454;23;20404;-72
2021/09/26 12:36:50;;;;;;;6.70;6.10;;;24.60;99.40;;;;;;6123403;23;20394;-69
2021/09/26 12:39:22;;;;;;;9.13;6.57;;;24.70;99.70;;;;;;6123783;23;20392;-69
2021/09/26 12:41:52;;;;;;;8.70;6.77;;;24.40;99.90;;;;;;6123494;23;20429;-71
2021/09/26 12:44:29;;;;;;;7.63;6.93;;;24.30;99.90;;;;;;6124629;23;20484;-70
2021/09/26 12:46:57;;;;;;;8.27;7.40;;;24.30;99.90;;;;;;6124301;23;20419;-72
2021/09/26 12:49:25;;;;;;;7.87;7.07;;;24.00;99.90;;;;;;6124123;23;20437;-70
2021/09/26 12:51:55;;;;;;;11.80;7.40;;;23.90;99.90;;;;;;6124175;23;20732;-70
2021/09/26 12:54:26;;;;;;;13.33;7.10;;;24.00;99.90;;;;;;6124283;23;20390;-72
2021/09/26 12:56:54;;;;;;;10.67;7.17;;;24.00;99.90;;;;;;6124467;23;20407;-71